Aviation Digital Data Service (ADDS)

Output produced by TAFs form (1234 UTC 20 July 2017)
found at http://www.aviationweather.gov/adds/tafs/
 
KRNH 201233Z 2013/2112 VRB02KT 1/2SM FG BKN002 
     FM201330 VRB03KT 2SM BR BKN002 
     FM201430 32007KT P6SM SKC 
     FM210200 VRB02KT P6SM SCT250 
     FM210700 00000KT 4SM BR SCT250